createdAt,value
2018-09-06T00:00:33.164Z,3.83
2018-09-06T00:06:28.151Z,3.87
2018-09-06T00:12:23.155Z,3.52
2018-09-06T00:18:18.173Z,3.85
2018-09-06T00:24:13.212Z,3.88
2018-09-06T00:30:08.231Z,3.9
2018-09-06T00:36:03.222Z,3.64
2018-09-06T00:41:58.217Z,3.27
2018-09-06T00:47:53.215Z,3.65
2018-09-06T00:53:48.208Z,3.71
2018-09-06T00:59:43.217Z,3.38
2018-09-06T01:05:38.220Z,3.65
2018-09-06T01:11:33.227Z,3.37
2018-09-06T01:17:28.270Z,3.23
2018-09-06T01:23:23.230Z,3.56
2018-09-06T01:29:18.234Z,3.61
2018-09-06T01:35:13.252Z,3.39
2018-09-06T01:41:08.258Z,3.74
2018-09-06T01:47:03.255Z,3.78
2018-09-06T01:52:58.285Z,3.83
2018-09-06T01:58:53.288Z,3.53
2018-09-06T02:04:48.274Z,3.83
2018-09-06T02:10:43.265Z,3.41
2018-09-06T02:16:38.304Z,3.88
2018-09-06T02:22:33.299Z,3.69
2018-09-06T02:28:28.295Z,3.59
2018-09-06T02:34:23.346Z,3.67
2018-09-06T02:40:18.335Z,3.53
2018-09-06T02:46:13.310Z,3.7
2018-09-06T02:52:08.317Z,3.79
2018-09-06T02:58:03.313Z,3.75
2018-09-06T03:03:58.356Z,3.89
2018-09-06T03:09:53.336Z,3.85
2018-09-06T03:15:48.356Z,3.94
2018-09-06T03:21:43.358Z,3.43
2018-09-06T03:27:38.349Z,3.34
2018-09-06T03:33:33.350Z,3.67
2018-09-06T03:39:28.364Z,4
2018-09-06T03:45:23.345Z,4.71
2018-09-06T03:51:18.373Z,3.63
2018-09-06T03:57:13.389Z,4.29
2018-09-06T04:03:08.408Z,3.75
2018-09-06T04:09:03.424Z,3.92
2018-09-06T04:14:58.404Z,3.92
2018-09-06T04:20:53.412Z,3.77
2018-09-06T04:26:48.451Z,4.08
2018-09-06T04:32:43.457Z,3.66
2018-09-06T04:38:38.431Z,3.52
2018-09-06T04:44:33.491Z,3.62
2018-09-06T04:50:28.414Z,3.72
2018-09-06T04:56:23.428Z,3.82
2018-09-06T05:02:18.450Z,3.53
2018-09-06T05:08:13.460Z,3.77
2018-09-06T05:14:08.489Z,3.94
2018-09-06T05:20:03.511Z,4.31
2018-09-06T05:25:58.495Z,4.59
2018-09-06T05:31:53.508Z,4.41
2018-09-06T05:37:48.495Z,4.85
2018-09-06T05:43:43.484Z,5.21
2018-09-06T05:49:38.492Z,4.41
2018-09-06T05:55:33.509Z,5.26
2018-09-06T06:01:28.512Z,5.06
2018-09-06T06:07:23.552Z,4.85
2018-09-06T06:13:18.547Z,5.4
2018-09-06T06:19:13.554Z,5.2
2018-09-06T06:25:08.554Z,5.28
2018-09-06T06:31:03.510Z,4.17
2018-09-06T06:36:58.536Z,5.33
2018-09-06T06:42:53.529Z,5.19
2018-09-06T06:48:48.546Z,5.7
2018-09-06T06:54:43.573Z,5.6
2018-09-06T07:00:38.552Z,5.4
2018-09-06T07:06:33.584Z,5.65
2018-09-06T07:12:28.544Z,5.46
2018-09-06T07:18:23.583Z,5.36
2018-09-06T07:24:18.589Z,6.5
2018-09-06T07:30:13.598Z,5.57
2018-09-06T07:36:08.615Z,5.2
2018-09-06T07:42:03.651Z,5.96
2018-09-06T07:47:58.620Z,6.41
2018-09-06T07:53:53.603Z,6.44
2018-09-06T07:59:48.609Z,6.33
2018-09-06T08:05:43.654Z,6.03
2018-09-06T08:11:38.624Z,6.09
2018-09-06T08:17:33.635Z,5.26
2018-09-06T08:23:28.708Z,6.04
2018-09-06T08:29:23.659Z,5.17
2018-09-06T08:35:18.701Z,6.02
2018-09-06T08:41:13.673Z,5.7
2018-09-06T08:47:08.655Z,5.03
2018-09-06T08:53:03.672Z,5.07
2018-09-06T08:58:58.662Z,4.97
2018-09-06T09:04:53.649Z,5.51
2018-09-06T09:10:48.694Z,5.13
2018-09-06T09:16:43.762Z,5.08
2018-09-06T09:22:38.681Z,4.87
2018-09-06T09:28:33.690Z,4.73
2018-09-06T09:34:28.740Z,4.56
2018-09-06T09:40:23.703Z,5
2018-09-06T09:52:13.736Z,4.7
2018-09-06T09:58:08.744Z,6.26
2018-09-06T10:04:03.822Z,5.15
2018-09-06T10:09:58.741Z,5.2
2018-09-06T10:15:53.757Z,5.21
2018-09-06T10:21:48.776Z,7.16
2018-09-06T10:27:43.770Z,4.93
2018-09-06T10:33:38.761Z,4.85
2018-09-06T10:39:33.801Z,3.98
2018-09-06T10:45:28.755Z,4.33
2018-09-06T10:51:23.766Z,4.57
2018-09-06T10:57:18.781Z,4.29
2018-09-06T11:03:13.780Z,5.07
2018-09-06T11:09:08.789Z,4.14
2018-09-06T11:15:03.808Z,4.3
2018-09-06T11:20:58.799Z,4.37
2018-09-06T11:26:53.816Z,4.58
2018-09-06T11:32:48.826Z,4.54
2018-09-06T11:38:43.821Z,4.55
2018-09-06T11:44:38.823Z,4
2018-09-06T11:50:33.862Z,4.16
2018-09-06T11:56:28.840Z,3.95
2018-09-06T12:02:23.873Z,3.5
2018-09-06T12:08:18.844Z,3.82
2018-09-06T12:14:13.847Z,6.3
2018-09-06T12:20:08.851Z,4.03
2018-09-06T12:26:03.865Z,3.32
2018-09-06T12:31:58.911Z,3.84
2018-09-06T12:37:53.862Z,3.76
2018-09-06T12:43:48.933Z,3.28
2018-09-06T12:49:43.970Z,3.48
2018-09-06T12:55:38.919Z,3.8
2018-09-06T13:01:33.916Z,3.57
2018-09-06T13:07:28.931Z,3.5
2018-09-06T13:13:23.934Z,3.98
2018-09-06T13:19:18.929Z,3.69
2018-09-06T13:25:13.960Z,2.88
2018-09-06T13:31:08.975Z,3.81
2018-09-06T13:37:03.948Z,3.3
2018-09-06T13:42:58.960Z,3.38
2018-09-06T13:48:53.960Z,3.33
2018-09-06T13:54:48.970Z,3
2018-09-06T14:00:43.978Z,2.92
2018-09-06T14:06:38.956Z,2.67
2018-09-06T14:12:33.982Z,2.89
2018-09-06T14:18:28.970Z,2.99
2018-09-06T14:24:23.984Z,2.83
2018-09-06T14:30:19.019Z,3.06
2018-09-06T14:36:13.983Z,3.02
2018-09-06T14:42:09.023Z,3.33
2018-09-06T14:48:04.128Z,2.75
2018-09-06T14:53:59.036Z,2.69
2018-09-06T14:59:54.023Z,3.42
2018-09-06T15:05:49.030Z,2.96
2018-09-06T15:11:44.037Z,3.37
2018-09-06T15:17:39.043Z,3.26
2018-09-06T15:23:34.043Z,3.11
2018-09-06T15:29:29.089Z,2.89
2018-09-06T15:35:24.059Z,3.72
2018-09-06T15:41:19.071Z,3.25
2018-09-06T15:47:14.122Z,3.33
2018-09-06T15:53:09.137Z,3.47
2018-09-06T15:59:04.105Z,3.71
2018-09-06T16:04:59.094Z,3.66
2018-09-06T16:10:54.153Z,3.57
2018-09-06T16:16:49.101Z,3.97
2018-09-06T16:22:44.129Z,4.47
2018-09-06T16:28:39.102Z,3.91
2018-09-06T16:34:34.131Z,3.96
2018-09-06T16:40:29.110Z,4.24
2018-09-06T16:46:24.126Z,3.92
2018-09-06T16:52:19.168Z,3.43
2018-09-06T16:58:14.159Z,4.18
2018-09-06T17:04:09.135Z,3.68
2018-09-06T17:10:04.220Z,3.62
2018-09-06T17:15:59.165Z,4.1
2018-09-06T17:21:54.227Z,3.31
2018-09-06T17:27:49.242Z,3.64
2018-09-06T17:33:44.197Z,3.56
2018-09-06T17:39:39.206Z,3.34
2018-09-06T17:45:34.179Z,3.85
2018-09-06T17:51:29.231Z,3.61
2018-09-06T17:57:24.207Z,3.52
2018-09-06T18:03:19.223Z,4.08
2018-09-06T18:09:14.260Z,3.74
2018-09-06T18:15:09.242Z,3.69
2018-09-06T18:21:04.387Z,3.8
2018-09-06T18:26:59.271Z,3.86
2018-09-06T18:32:54.303Z,4.88
2018-09-06T18:38:49.276Z,3.76
2018-09-06T18:44:44.249Z,4.15
2018-09-06T18:50:39.293Z,4.32
2018-09-06T18:56:34.287Z,4.15
2018-09-06T18:57:40.935Z,5.17
2018-09-06T19:03:35.941Z,3.62
2018-09-06T19:09:31.042Z,4.37
2018-09-06T19:15:25.965Z,4.71
2018-09-06T19:21:20.958Z,4.15
2018-09-06T19:27:15.989Z,4.38
2018-09-06T19:33:10.976Z,4.23
2018-09-06T19:39:06.010Z,3.7
2018-09-06T19:45:01.119Z,3.74
2018-09-06T19:50:55.985Z,3.73
2018-09-06T19:56:51.010Z,4.46
2018-09-06T20:02:46.064Z,4.51
2018-09-06T20:08:41.086Z,4.78
2018-09-06T20:14:36.053Z,4.51
2018-09-06T20:20:31.008Z,4.33
2018-09-06T20:26:26.086Z,5.08
2018-09-06T20:32:21.045Z,4.81
2018-09-06T20:38:16.027Z,4.48
2018-09-06T20:44:11.093Z,4.43
2018-09-06T20:50:06.064Z,4.6
2018-09-06T20:56:01.069Z,4.5
